createdAt,value
2018-12-15T00:00:45.054Z,84.57
2018-12-15T00:03:12.521Z,83.69
2018-12-15T00:05:39.966Z,85.03
2018-12-15T00:08:07.407Z,85.51
2018-12-15T00:10:34.874Z,84.00
2018-12-15T00:13:02.322Z,82.21
2018-12-15T00:15:29.781Z,82.88
2018-12-15T00:17:57.221Z,85.68
2018-12-15T00:20:24.684Z,83.25
2018-12-15T00:22:52.147Z,84.55
2018-12-15T00:25:19.601Z,81.75
2018-12-15T00:27:47.065Z,82.32
2018-12-15T00:30:14.874Z,82.52
2018-12-15T00:32:42.680Z,84.97
2018-12-15T00:35:10.149Z,86.25
2018-12-15T00:37:37.613Z,83.23
2018-12-15T00:40:08.100Z,82.53
2018-12-15T00:42:35.552Z,81.80
2018-12-15T00:45:04.536Z,79.61
2018-12-15T00:47:31.977Z,79.26
2018-12-15T00:49:59.442Z,79.54
2018-12-15T00:52:26.885Z,78.72
2018-12-15T00:54:54.343Z,77.09
2018-12-15T00:57:21.798Z,78.27
2018-12-15T00:59:49.248Z,78.67
2018-12-15T01:02:16.753Z,80.78
2018-12-15T01:04:44.201Z,83.48
2018-12-15T01:07:11.661Z,85.10
2018-12-15T01:09:39.109Z,84.34
2018-12-15T01:12:06.570Z,83.76
2018-12-15T01:14:34.017Z,83.43
2018-12-15T01:17:01.495Z,82.43
2018-12-15T01:19:28.949Z,83.90
2018-12-15T01:21:56.410Z,91.03
2018-12-15T01:24:23.858Z,90.48
2018-12-15T01:26:51.316Z,90.57
2018-12-15T01:29:18.805Z,90.11
2018-12-15T01:31:46.269Z,89.11
2018-12-15T01:34:13.710Z,90.75
2018-12-15T01:36:41.174Z,90.76
2018-12-15T01:39:08.751Z,91.98
2018-12-15T01:41:36.209Z,94.82
2018-12-15T01:44:03.648Z,93.10
2018-12-15T01:46:31.100Z,92.43
2018-12-15T01:48:58.568Z,90.87
2018-12-15T01:51:26.014Z,90.89
2018-12-15T01:53:53.482Z,87.92
2018-12-15T01:56:20.933Z,83.13
2018-12-15T01:58:48.405Z,84.48
2018-12-15T02:01:15.866Z,82.55
2018-12-15T02:03:43.333Z,80.12
2018-12-15T02:06:10.783Z,79.62
2018-12-15T02:08:38.394Z,80.14
2018-12-15T02:11:05.841Z,82.70
2018-12-15T02:13:33.297Z,83.74
2018-12-15T02:16:00.747Z,81.57
2018-12-15T02:18:28.378Z,82.51
2018-12-15T02:20:55.832Z,82.11
2018-12-15T02:23:23.298Z,79.87
2018-12-15T02:25:50.817Z,81.68
2018-12-15T02:28:18.283Z,79.10
2018-12-15T02:30:45.721Z,79.49
2018-12-15T02:33:13.181Z,78.13
2018-12-15T02:35:40.629Z,77.50
2018-12-15T02:38:08.087Z,76.60
2018-12-15T02:40:35.542Z,76.72
2018-12-15T02:43:02.998Z,80.98
2018-12-15T02:45:30.458Z,78.35
2018-12-15T02:47:57.922Z,79.02
2018-12-15T02:50:25.385Z,79.07
2018-12-15T02:52:52.832Z,79.77
2018-12-15T02:55:20.432Z,79.44
2018-12-15T02:57:47.882Z,80.81
2018-12-15T03:00:15.341Z,77.71
2018-12-15T03:02:43.013Z,77.36
2018-12-15T03:05:10.471Z,78.34
2018-12-15T03:07:37.913Z,78.42
2018-12-15T03:10:06.541Z,77.20
2018-12-15T03:12:33.986Z,78.57
2018-12-15T03:15:01.455Z,79.00
2018-12-15T03:17:28.903Z,80.29
2018-12-15T03:19:59.941Z,78.48
2018-12-15T03:22:27.977Z,78.50
2018-12-15T03:24:55.429Z,78.71
2018-12-15T03:27:23.277Z,79.02
2018-12-15T03:29:50.718Z,80.15
2018-12-15T03:32:18.183Z,80.64
2018-12-15T03:34:45.622Z,80.61
2018-12-15T03:37:13.086Z,81.10
2018-12-15T03:39:40.532Z,77.64
2018-12-15T03:42:07.999Z,79.79
2018-12-15T03:44:35.436Z,80.18
2018-12-15T03:47:02.908Z,79.26
2018-12-15T03:49:30.353Z,80.05
2018-12-15T03:51:57.822Z,78.08
2018-12-15T03:54:25.272Z,79.81
2018-12-15T03:56:52.744Z,79.36
2018-12-15T03:59:20.686Z,81.20
2018-12-15T04:01:48.146Z,80.91
2018-12-15T04:04:15.586Z,79.78
2018-12-15T04:06:43.072Z,77.41
2018-12-15T04:09:10.532Z,80.01
2018-12-15T04:11:37.988Z,79.66
2018-12-15T04:14:05.455Z,81.51
2018-12-15T04:16:33.011Z,81.27
2018-12-15T04:19:00.470Z,82.33
2018-12-15T04:21:27.919Z,83.41
2018-12-15T04:23:55.394Z,84.70
2018-12-15T04:26:22.853Z,83.84
2018-12-15T04:28:50.297Z,87.39
2018-12-15T04:31:17.773Z,89.97
2018-12-15T04:33:45.231Z,91.10
2018-12-15T04:36:15.467Z,93.80
2018-12-15T04:38:42.906Z,94.64
2018-12-15T04:41:10.417Z,94.16
2018-12-15T04:43:37.870Z,94.59
2018-12-15T04:46:05.316Z,94.48
2018-12-15T04:48:32.775Z,95.12
2018-12-15T04:51:00.242Z,96.84
2018-12-15T04:53:27.696Z,98.75
2018-12-15T04:55:55.148Z,99.41
2018-12-15T04:58:22.610Z,98.91
2018-12-15T05:00:50.066Z,99.79
2018-12-15T05:03:17.533Z,99.05
2018-12-15T05:05:44.992Z,100.00
2018-12-15T05:08:12.521Z,100.00
2018-12-15T05:10:39.985Z,100.00
2018-12-15T05:13:07.442Z,100.00
2018-12-15T05:15:34.913Z,100.00
2018-12-15T05:18:02.377Z,100.00
2018-12-15T05:20:29.826Z,100.00
2018-12-15T05:22:57.297Z,100.00
2018-12-15T05:25:24.745Z,100.00
2018-12-15T05:27:52.216Z,100.00
2018-12-15T05:30:19.665Z,99.57
2018-12-15T05:32:47.136Z,100.00
2018-12-15T05:35:14.585Z,98.79
2018-12-15T05:37:42.104Z,99.10
2018-12-15T05:40:09.717Z,98.34
2018-12-15T05:42:37.186Z,98.09
2018-12-15T05:45:05.614Z,99.75
2018-12-15T05:47:33.075Z,100.00
2018-12-15T05:50:00.524Z,100.00
2018-12-15T05:52:27.990Z,100.00
2018-12-15T05:54:55.442Z,100.00
2018-12-15T05:57:22.901Z,100.00
2018-12-15T05:59:50.365Z,100.00
2018-12-15T06:02:18.633Z,100.00
2018-12-15T06:04:46.086Z,100.00
2018-12-15T06:07:13.550Z,100.00
2018-12-15T06:09:41.021Z,100.00
2018-12-15T06:12:08.481Z,100.00
2018-12-15T06:14:35.946Z,100.00
2018-12-15T06:17:03.399Z,100.00
2018-12-15T06:19:30.869Z,100.00
2018-12-15T06:21:58.310Z,100.00
2018-12-15T06:24:25.782Z,100.00
2018-12-15T06:26:53.237Z,100.00
2018-12-15T06:29:20.696Z,100.00
2018-12-15T06:31:48.153Z,100.00
2018-12-15T06:34:15.613Z,100.00
2018-12-15T06:36:43.060Z,100.00
2018-12-15T06:39:10.526Z,100.00
2018-12-15T06:41:37.986Z,100.00
2018-12-15T06:44:05.465Z,100.00
2018-12-15T06:46:32.918Z,100.00
2018-12-15T06:49:00.374Z,100.00
2018-12-15T06:51:27.824Z,100.00
2018-12-15T06:53:55.281Z,100.00
2018-12-15T06:56:24.734Z,100.00
2018-12-15T06:58:52.181Z,100.00
2018-12-15T07:01:19.636Z,100.00
2018-12-15T07:03:47.101Z,100.00
2018-12-15T07:06:14.574Z,100.00
2018-12-15T07:08:42.028Z,100.00
2018-12-15T07:11:09.487Z,100.00
2018-12-15T07:13:37.009Z,100.00
2018-12-15T07:16:04.570Z,100.00
2018-12-15T07:18:32.018Z,100.00
2018-12-15T07:20:59.485Z,100.00
2018-12-15T07:23:26.939Z,100.00
2018-12-15T07:25:54.800Z,100.00
2018-12-15T07:28:22.251Z,100.00
2018-12-15T07:30:49.709Z,100.00
2018-12-15T07:33:17.165Z,100.00
2018-12-15T07:35:44.630Z,100.00
2018-12-15T07:38:12.512Z,100.00
2018-12-15T07:40:39.977Z,100.00
2018-12-15T07:43:07.417Z,100.00
2018-12-15T07:45:34.870Z,100.00
2018-12-15T07:48:02.332Z,100.00
2018-12-15T07:50:29.777Z,100.00
2018-12-15T07:52:57.375Z,100.00
2018-12-15T07:55:24.824Z,100.00
2018-12-15T07:57:52.281Z,100.00
2018-12-15T08:00:19.729Z,100.00
2018-12-15T08:02:47.195Z,100.00
2018-12-15T08:05:15.698Z,100.00
2018-12-15T08:07:43.322Z,100.00
2018-12-15T08:10:10.943Z,100.00
2018-12-15T08:12:40.389Z,100.00
2018-12-15T08:15:07.926Z,100.00
2018-12-15T08:17:35.397Z,100.00
2018-12-15T08:20:04.137Z,100.00
2018-12-15T08:22:31.614Z,100.00
2018-12-15T08:24:59.057Z,100.00
2018-12-15T08:27:26.513Z,100.00
2018-12-15T08:29:54.006Z,100.00
2018-12-15T08:32:21.461Z,100.00
2018-12-15T08:34:48.924Z,100.00
2018-12-15T08:37:16.369Z,100.00
2018-12-15T08:39:43.850Z,100.00
2018-12-15T08:42:11.302Z,100.00
2018-12-15T08:44:38.775Z,100.00
2018-12-15T08:47:06.216Z,100.00
2018-12-15T08:49:33.686Z,100.00
2018-12-15T08:52:01.155Z,100.00
2018-12-15T08:54:28.639Z,100.00
2018-12-15T08:56:56.092Z,100.00
2018-12-15T08:59:23.556Z,100.00
2018-12-15T09:01:51.021Z,100.00
2018-12-15T09:04:18.534Z,100.00
2018-12-15T09:06:45.992Z,100.00
2018-12-15T09:09:13.461Z,100.00
2018-12-15T09:11:40.951Z,100.00
2018-12-15T09:14:08.410Z,100.00
2018-12-15T09:16:35.876Z,100.00
2018-12-15T09:19:03.340Z,100.00
2018-12-15T09:21:31.274Z,100.00
2018-12-15T09:23:58.722Z,100.00
2018-12-15T09:26:26.299Z,100.00
2018-12-15T09:28:53.768Z,100.00
2018-12-15T09:31:21.229Z,100.00
2018-12-15T09:33:48.681Z,100.00
2018-12-15T09:36:16.249Z,100.00
2018-12-15T09:38:43.696Z,100.00
2018-12-15T09:41:11.267Z,100.00
2018-12-15T09:43:38.725Z,100.00
2018-12-15T09:46:06.182Z,99.71
2018-12-15T09:48:33.633Z,99.62
2018-12-15T09:51:01.104Z,99.08
2018-12-15T09:53:29.054Z,98.53
2018-12-15T09:55:56.590Z,99.46
2018-12-15T09:58:24.035Z,96.68
2018-12-15T10:00:51.494Z,98.76
2018-12-15T10:03:18.938Z,98.76
2018-12-15T10:05:46.383Z,99.13
2018-12-15T10:08:13.845Z,98.75
2018-12-15T10:10:41.322Z,97.87
2018-12-15T10:13:08.782Z,97.94
2018-12-15T10:15:36.217Z,98.15
2018-12-15T10:18:03.783Z,97.00
2018-12-15T10:20:31.657Z,95.86
2018-12-15T10:22:59.117Z,94.18
2018-12-15T10:25:26.561Z,97.58
2018-12-15T10:27:54.033Z,96.03
2018-12-15T10:30:27.115Z,95.89
2018-12-15T10:32:54.585Z,96.19
2018-12-15T10:35:22.110Z,95.07
2018-12-15T10:37:49.569Z,92.54
2018-12-15T10:40:17.098Z,92.30
2018-12-15T10:42:44.573Z,94.50
2018-12-15T10:45:12.028Z,92.49
2018-12-15T10:47:39.473Z,92.42
2018-12-15T10:50:09.002Z,90.80
2018-12-15T10:52:36.539Z,91.07
2018-12-15T10:55:05.473Z,90.84
2018-12-15T10:57:32.912Z,90.56
2018-12-15T11:00:00.381Z,91.04
2018-12-15T11:02:27.821Z,89.95
2018-12-15T11:04:55.286Z,89.95
2018-12-15T11:07:22.742Z,89.58
2018-12-15T11:09:51.133Z,90.77
2018-12-15T11:12:18.569Z,88.45
2018-12-15T11:14:46.029Z,89.53
2018-12-15T11:17:13.470Z,88.69
2018-12-15T11:19:40.938Z,87.18
2018-12-15T11:22:08.390Z,91.43
2018-12-15T11:24:35.850Z,90.91
2018-12-15T11:27:03.292Z,88.04
2018-12-15T11:29:30.755Z,90.18
2018-12-15T11:31:58.201Z,90.50
2018-12-15T11:34:25.650Z,90.59
2018-12-15T11:36:53.115Z,93.26
2018-12-15T11:39:20.558Z,94.91
2018-12-15T11:41:48.031Z,100.00
2018-12-15T11:44:15.474Z,97.24
2018-12-15T11:46:42.938Z,93.23
2018-12-15T11:49:10.381Z,92.20
2018-12-15T11:51:38.957Z,90.61
2018-12-15T11:54:06.398Z,92.00
2018-12-15T11:56:33.855Z,90.57
2018-12-15T11:59:01.299Z,90.34
2018-12-15T12:01:28.843Z,90.56
2018-12-15T12:03:56.295Z,90.67
2018-12-15T12:06:23.749Z,91.71
2018-12-15T12:08:51.206Z,90.90
2018-12-15T12:11:18.658Z,90.04
2018-12-15T12:13:46.121Z,89.36
2018-12-15T12:16:13.601Z,89.53
2018-12-15T12:18:41.046Z,91.03
2018-12-15T12:21:08.504Z,90.58
2018-12-15T12:23:35.957Z,90.46
2018-12-15T12:26:03.397Z,89.96
2018-12-15T12:28:30.875Z,89.55
2018-12-15T12:30:58.335Z,89.74
2018-12-15T12:33:25.804Z,89.45
2018-12-15T12:35:53.258Z,90.19
2018-12-15T12:38:20.711Z,90.26
2018-12-15T12:40:48.149Z,89.61
2018-12-15T12:43:15.606Z,87.03
2018-12-15T12:45:43.051Z,88.79
2018-12-15T12:48:10.509Z,89.24
2018-12-15T12:50:37.957Z,88.39
2018-12-15T12:53:05.420Z,88.05
2018-12-15T12:55:32.861Z,88.14
2018-12-15T12:58:00.350Z,86.89
2018-12-15T13:00:27.845Z,89.17
2018-12-15T13:02:55.298Z,87.82
2018-12-15T13:05:22.739Z,88.85
2018-12-15T13:07:50.695Z,91.08
2018-12-15T13:10:18.155Z,85.55
2018-12-15T13:12:45.593Z,86.64
2018-12-15T13:15:13.090Z,86.23
2018-12-15T13:17:40.545Z,83.99
2018-12-15T13:20:08.094Z,84.17
2018-12-15T13:22:35.543Z,83.40
2018-12-15T13:25:02.996Z,83.77
2018-12-15T13:27:30.499Z,82.40
2018-12-15T13:29:57.957Z,82.65
2018-12-15T13:32:25.397Z,81.01
2018-12-15T13:34:52.867Z,82.53
2018-12-15T13:37:20.397Z,81.11
2018-12-15T13:39:47.857Z,79.29
2018-12-15T13:42:15.302Z,79.81
2018-12-15T13:44:42.794Z,77.94
2018-12-15T13:47:10.234Z,81.19
2018-12-15T13:49:37.851Z,79.12
2018-12-15T13:52:05.305Z,80.16
2018-12-15T13:54:32.773Z,79.75
2018-12-15T13:57:00.225Z,79.93
2018-12-15T13:59:27.701Z,80.88
2018-12-15T14:01:55.182Z,79.74
2018-12-15T14:04:22.622Z,78.32
2018-12-15T14:06:50.102Z,77.48
2018-12-15T14:09:17.549Z,76.45
2018-12-15T14:11:44.998Z,77.05
2018-12-15T14:14:12.448Z,76.23
2018-12-15T14:16:39.910Z,77.51
2018-12-15T14:19:07.355Z,78.55
2018-12-15T14:21:34.828Z,78.84
2018-12-15T14:24:02.271Z,78.83
2018-12-15T14:26:29.753Z,77.18
2018-12-15T14:28:57.195Z,78.67
2018-12-15T14:31:24.660Z,79.86
2018-12-15T14:33:52.100Z,78.69
2018-12-15T14:36:19.577Z,78.83
2018-12-15T14:38:47.019Z,77.87
2018-12-15T14:41:14.484Z,76.41
2018-12-15T14:43:41.923Z,76.74
2018-12-15T14:46:09.386Z,75.20
2018-12-15T14:51:03.574Z,75.92
2018-12-15T14:53:31.026Z,75.19
2018-12-15T14:55:58.470Z,77.86
2018-12-15T14:58:26.030Z,75.98
2018-12-15T15:00:53.465Z,77.62
2018-12-15T15:03:20.925Z,77.68
2018-12-15T15:05:48.376Z,77.85
2018-12-15T15:08:15.867Z,76.11
2018-12-15T15:10:43.423Z,76.77
2018-12-15T15:13:10.888Z,77.09
2018-12-15T15:15:38.332Z,77.91
2018-12-15T15:18:06.281Z,80.64
2018-12-15T15:20:33.725Z,81.26
2018-12-15T15:23:01.182Z,82.50
2018-12-15T15:25:28.623Z,82.26
2018-12-15T15:27:56.089Z,82.34
2018-12-15T15:30:23.576Z,83.00
2018-12-15T15:32:51.039Z,84.77
2018-12-15T15:35:18.683Z,84.40
2018-12-15T15:37:46.119Z,84.45
2018-12-15T15:40:13.727Z,84.98
2018-12-15T15:42:41.284Z,84.42
2018-12-15T15:45:08.856Z,86.26
2018-12-15T15:47:36.288Z,85.85
2018-12-15T15:50:05.315Z,85.49
2018-12-15T15:52:32.745Z,85.41
2018-12-15T15:55:00.210Z,85.36
2018-12-15T15:57:27.650Z,84.85
2018-12-15T15:59:55.110Z,84.57
2018-12-15T16:02:22.558Z,86.07
2018-12-15T16:04:50.026Z,85.52
2018-12-15T16:07:17.464Z,86.99
2018-12-15T16:09:45.203Z,87.33
2018-12-15T16:12:13.003Z,87.31
2018-12-15T16:14:40.461Z,87.97
2018-12-15T16:17:07.906Z,87.70
2018-12-15T16:19:35.363Z,87.77
2018-12-15T16:22:02.874Z,89.15
2018-12-15T16:24:30.324Z,88.69
2018-12-15T16:26:57.883Z,88.39
2018-12-15T16:29:25.332Z,88.27
2018-12-15T16:31:52.804Z,88.57
2018-12-15T16:34:20.253Z,88.30
2018-12-15T16:36:47.731Z,88.92
2018-12-15T16:39:15.160Z,88.69
2018-12-15T16:41:42.634Z,90.33
2018-12-15T16:44:10.079Z,89.71
2018-12-15T16:46:37.547Z,89.62
2018-12-15T16:49:06.067Z,89.01
2018-12-15T16:51:33.883Z,89.87
2018-12-15T16:54:01.329Z,88.22
2018-12-15T16:56:28.798Z,89.53
2018-12-15T16:58:56.250Z,89.18
2018-12-15T17:01:23.712Z,89.72
2018-12-15T17:03:51.165Z,89.05
2018-12-15T17:06:18.626Z,88.84
2018-12-15T17:08:46.074Z,88.76
2018-12-15T17:11:13.546Z,87.92
2018-12-15T17:13:40.997Z,87.70
2018-12-15T17:16:08.438Z,89.01
2018-12-15T17:18:35.895Z,88.52
2018-12-15T17:21:03.434Z,88.50
2018-12-15T17:23:30.906Z,86.59
2018-12-15T17:25:58.355Z,88.56
2018-12-15T17:28:25.941Z,87.52
2018-12-15T17:30:53.556Z,87.36
2018-12-15T17:33:21.025Z,87.77
2018-12-15T17:35:48.469Z,89.36
2018-12-15T17:38:15.932Z,87.68
2018-12-15T17:40:43.385Z,87.65
2018-12-15T17:43:10.848Z,88.36
2018-12-15T17:45:38.298Z,88.54
2018-12-15T17:48:05.751Z,89.42
2018-12-15T17:50:33.655Z,87.96
2018-12-15T17:53:01.122Z,89.09
2018-12-15T17:55:28.565Z,91.07
2018-12-15T17:57:56.017Z,90.96
2018-12-15T18:00:23.931Z,91.70
2018-12-15T18:02:51.376Z,91.47
2018-12-15T18:05:18.842Z,92.17
2018-12-15T18:07:46.277Z,90.95
2018-12-15T18:10:13.829Z,90.18
2018-12-15T18:12:41.272Z,90.51
2018-12-15T18:15:08.811Z,89.97
2018-12-15T18:17:36.885Z,91.96
2018-12-15T18:20:05.229Z,92.79
2018-12-15T18:22:32.676Z,94.41
2018-12-15T18:25:00.140Z,95.53
2018-12-15T18:27:27.602Z,95.92
2018-12-15T18:29:55.053Z,95.98
2018-12-15T18:32:23.170Z,95.73
2018-12-15T18:34:50.637Z,96.24
2018-12-15T18:37:18.094Z,97.90
2018-12-15T18:39:45.548Z,98.08
2018-12-15T18:42:12.995Z,96.60
2018-12-15T18:44:40.498Z,98.21
2018-12-15T18:47:07.960Z,97.28
2018-12-15T18:49:35.429Z,97.96
2018-12-15T18:52:02.882Z,98.05
2018-12-15T18:54:30.323Z,98.80
2018-12-15T18:56:57.778Z,97.75
2018-12-15T18:59:25.227Z,98.50
2018-12-15T19:01:52.693Z,98.01
2018-12-15T19:04:20.143Z,98.75
2018-12-15T19:06:47.601Z,97.79
2018-12-15T19:09:15.052Z,99.20
2018-12-15T19:11:43.179Z,98.95
2018-12-15T19:14:10.622Z,98.45
2018-12-15T19:16:38.070Z,98.41
2018-12-15T19:19:05.533Z,99.54
2018-12-15T19:21:33.009Z,98.90
2018-12-15T19:24:00.558Z,98.64
2018-12-15T19:26:28.028Z,98.81
2018-12-15T19:28:55.475Z,98.76
2018-12-15T19:31:22.925Z,98.90
2018-12-15T19:33:50.363Z,98.67
2018-12-15T19:36:17.810Z,98.30
2018-12-15T19:38:45.270Z,97.83
2018-12-15T19:41:12.740Z,97.67
2018-12-15T19:43:40.209Z,96.79
2018-12-15T19:46:07.714Z,97.14
2018-12-15T19:48:35.168Z,97.24
2018-12-15T19:51:02.621Z,96.50
2018-12-15T19:53:30.079Z,96.66
2018-12-15T19:55:57.537Z,96.24
2018-12-15T19:58:25.008Z,96.18
2018-12-15T20:00:52.507Z,96.14
2018-12-15T20:03:20.078Z,97.41
2018-12-15T20:05:47.527Z,96.80
2018-12-15T20:08:14.983Z,96.65
2018-12-15T20:10:42.434Z,95.95
2018-12-15T20:13:09.893Z,94.45
2018-12-15T20:15:37.346Z,96.19
2018-12-15T20:18:04.809Z,96.14
2018-12-15T20:20:32.252Z,94.73
2018-12-15T20:23:00.058Z,94.18
2018-12-15T20:25:27.519Z,93.38
2018-12-15T20:27:54.981Z,95.25
2018-12-15T20:30:22.441Z,96.85
2018-12-15T20:32:49.897Z,96.72
2018-12-15T20:35:17.465Z,98.91
2018-12-15T20:37:44.913Z,98.55
2018-12-15T20:40:12.461Z,98.80
2018-12-15T20:42:39.918Z,98.12
2018-12-15T20:45:07.388Z,100.00
2018-12-15T20:47:34.842Z,100.00
2018-12-15T20:50:02.310Z,100.00
2018-12-15T20:52:29.762Z,100.00
2018-12-15T20:54:57.217Z,100.00
2018-12-15T20:57:24.678Z,100.00
2018-12-15T20:59:52.146Z,100.00
2018-12-15T21:02:19.606Z,100.00
2018-12-15T21:04:47.066Z,100.00
2018-12-15T21:07:14.527Z,100.00
2018-12-15T21:09:41.987Z,100.00
2018-12-15T21:12:09.459Z,100.00
2018-12-15T21:14:36.901Z,99.88
2018-12-15T21:17:04.485Z,100.00
2018-12-15T21:19:31.933Z,100.00
2018-12-15T21:21:59.421Z,100.00
2018-12-15T21:24:26.863Z,100.00
2018-12-15T21:26:54.337Z,100.00
2018-12-15T21:29:21.788Z,100.00
2018-12-15T21:31:49.258Z,100.00
2018-12-15T21:34:16.726Z,100.00
2018-12-15T21:36:44.197Z,100.00
2018-12-15T21:39:11.643Z,100.00
2018-12-15T21:41:39.113Z,100.00
2018-12-15T21:44:06.561Z,100.00
2018-12-15T21:46:34.044Z,100.00
2018-12-15T21:49:01.501Z,100.00
2018-12-15T21:51:28.967Z,100.00
2018-12-15T21:53:56.465Z,100.00
2018-12-15T21:56:23.933Z,100.00
2018-12-15T21:58:51.384Z,100.00
2018-12-15T22:01:18.832Z,100.00
2018-12-15T22:03:46.292Z,100.00
2018-12-15T22:06:13.754Z,100.00
2018-12-15T22:08:41.225Z,100.00
2018-12-15T22:11:08.801Z,100.00
2018-12-15T22:13:36.269Z,100.00
2018-12-15T22:16:03.996Z,100.00
2018-12-15T22:18:31.458Z,97.35
2018-12-15T22:20:59.094Z,97.89
2018-12-15T22:23:26.574Z,100.00
2018-12-15T22:25:54.047Z,100.00
2018-12-15T22:28:21.525Z,100.00
2018-12-15T22:30:48.983Z,100.00
2018-12-15T22:33:16.453Z,100.00
2018-12-15T22:35:43.908Z,100.00
2018-12-15T22:38:11.373Z,100.00
2018-12-15T22:40:38.842Z,100.00
2018-12-15T22:43:06.897Z,100.00
2018-12-15T22:45:34.363Z,100.00
2018-12-15T22:48:01.822Z,100.00
2018-12-15T22:50:29.348Z,100.00
2018-12-15T22:52:56.889Z,100.00
2018-12-15T22:55:24.369Z,100.00
2018-12-15T22:57:51.831Z,100.00
2018-12-15T23:00:19.441Z,100.00
2018-12-15T23:02:46.901Z,100.00
2018-12-15T23:05:14.378Z,100.00
2018-12-15T23:07:41.837Z,100.00
2018-12-15T23:10:09.973Z,100.00
2018-12-15T23:12:37.435Z,100.00
2018-12-15T23:15:06.565Z,100.00
2018-12-15T23:17:34.023Z,100.00
2018-12-15T23:20:01.487Z,100.00
2018-12-15T23:22:28.941Z,100.00
2018-12-15T23:24:56.411Z,100.00
2018-12-15T23:27:23.876Z,100.00
2018-12-15T23:29:51.383Z,100.00
2018-12-15T23:32:18.842Z,100.00
2018-12-15T23:34:46.319Z,100.00
2018-12-15T23:37:13.774Z,100.00
2018-12-15T23:39:41.293Z,100.00
2018-12-15T23:42:08.812Z,100.00
2018-12-15T23:44:36.282Z,100.00
2018-12-15T23:47:03.860Z,100.00
2018-12-15T23:49:31.314Z,100.00
2018-12-15T23:51:58.782Z,100.00
2018-12-15T23:54:26.233Z,100.00
2018-12-15T23:56:53.701Z,100.00
2018-12-15T23:59:21.150Z,100.00
